createdAt,value
2023-01-20T00:01:48.942Z,339.20
2023-01-20T00:04:19.491Z,349.90
2023-01-20T00:06:48.174Z,322.10
2023-01-20T00:09:18.151Z,196.60
2023-01-20T00:11:46.908Z,214.10
2023-01-20T00:14:15.201Z,200.20
2023-01-20T00:16:45.657Z,239.80
2023-01-20T00:19:14.940Z,222.20
2023-01-20T00:21:43.448Z,194.10
2023-01-20T00:24:11.519Z,240.40
2023-01-20T00:26:42.570Z,250.20
2023-01-20T00:29:10.937Z,258.20
2023-01-20T00:31:39.051Z,262.20
2023-01-20T00:34:07.092Z,269.40
2023-01-20T00:36:35.525Z,274.30
2023-01-20T00:39:04.892Z,285.80
2023-01-20T00:41:32.878Z,280.40
2023-01-20T00:44:00.927Z,266.00
2023-01-20T00:46:28.920Z,259.40
2023-01-20T00:48:56.985Z,302.80
2023-01-20T00:51:25.056Z,296.80
2023-01-20T00:53:53.087Z,346.00
2023-01-20T00:56:21.047Z,296.90
2023-01-20T00:58:49.259Z,269.80
2023-01-20T01:01:17.420Z,311.10
2023-01-20T01:03:45.478Z,315.40
2023-01-20T01:06:17.108Z,328.00
2023-01-20T01:08:45.680Z,299.90
2023-01-20T01:11:14.467Z,252.50
2023-01-20T01:13:42.513Z,264.50
2023-01-20T01:16:14.128Z,244.90
2023-01-20T01:18:43.399Z,259.70
2023-01-20T01:21:15.075Z,246.40
2023-01-20T01:23:44.353Z,218.90
2023-01-20T01:26:12.766Z,215.50
2023-01-20T01:28:41.236Z,158.10
2023-01-20T01:31:10.274Z,169.60
2023-01-20T01:33:38.785Z,174.10
2023-01-20T01:36:09.533Z,196.30
2023-01-20T01:38:37.448Z,192.70
2023-01-20T01:41:06.081Z,201.40
2023-01-20T01:43:37.369Z,199.10
2023-01-20T01:46:06.211Z,183.30
2023-01-20T01:48:39.771Z,179.40
2023-01-20T01:51:19.756Z,167.30
2023-01-20T01:53:58.759Z,190.80
2023-01-20T01:56:27.653Z,177.10
2023-01-20T01:58:58.882Z,164.90
2023-01-20T02:01:29.415Z,247.00
2023-01-20T02:04:21.200Z,296.30
2023-01-20T02:13:02.773Z,203.10
2023-01-20T02:15:39.531Z,220.90
2023-01-20T02:18:25.841Z,285.70
2023-01-20T02:21:30.982Z,269.80
2023-01-20T02:24:04.886Z,251.30
2023-01-20T02:26:42.180Z,230.90
2023-01-20T02:29:35.196Z,200.50
2023-01-20T02:32:27.700Z,199.50
2023-01-20T02:35:20.261Z,155.80
2023-01-20T02:38:00.856Z,173.10
2023-01-20T02:40:39.051Z,199.70
2023-01-20T02:43:32.335Z,264.50
2023-01-20T02:46:09.961Z,268.90
2023-01-20T02:49:26.603Z,232.60
2023-01-20T02:52:02.494Z,247.10
2023-01-20T02:54:34.054Z,249.40
2023-01-20T02:57:04.908Z,233.50
2023-01-20T02:59:40.263Z,251.10
2023-01-20T03:02:18.285Z,248.20
2023-01-20T03:04:54.431Z,248.70
2023-01-20T03:07:26.088Z,277.70
2023-01-20T03:09:57.628Z,288.30
2023-01-20T03:12:38.548Z,293.20
2023-01-20T03:15:07.861Z,306.70
2023-01-20T03:17:35.933Z,320.70
2023-01-20T03:20:22.203Z,291.50
2023-01-20T03:22:50.173Z,289.90
2023-01-20T03:25:20.469Z,317.30
2023-01-20T03:27:48.834Z,328.60
2023-01-20T03:30:18.232Z,334.60
2023-01-20T03:32:48.469Z,324.60
2023-01-20T03:35:17.773Z,318.50
2023-01-20T03:37:46.191Z,314.10
2023-01-20T03:40:14.964Z,302.50
2023-01-20T03:43:15.891Z,294.70
2023-01-20T03:46:01.276Z,281.50
2023-01-20T03:48:42.587Z,271.90
2023-01-20T03:51:34.089Z,241.00
2023-01-20T03:54:10.017Z,259.90
2023-01-20T03:57:11.410Z,256.60
2023-01-20T03:59:41.301Z,231.50
2023-01-20T04:02:10.631Z,162.40
2023-01-20T04:04:42.208Z,139.40
2023-01-20T04:07:15.355Z,130.10
2023-01-20T04:09:49.081Z,124.40
2023-01-20T04:12:17.197Z,125.60
2023-01-20T04:14:45.258Z,111.00
2023-01-20T04:17:13.825Z,115.70
2023-01-20T04:19:41.911Z,127.10
2023-01-20T04:22:33.675Z,148.90
2023-01-20T04:25:14.485Z,154.90
2023-01-20T04:27:43.234Z,163.20
2023-01-20T04:30:13.965Z,176.20
2023-01-20T04:32:42.006Z,180.40
2023-01-20T04:35:16.543Z,201.60
2023-01-20T04:37:45.144Z,214.70
2023-01-20T04:40:13.769Z,210.50
2023-01-20T04:42:41.804Z,189.60
2023-01-20T04:45:16.381Z,179.80
2023-01-20T04:47:45.090Z,172.20
2023-01-20T04:50:14.254Z,177.10
2023-01-20T04:52:43.042Z,178.70
2023-01-20T04:55:11.755Z,181.10
2023-01-20T04:57:40.142Z,192.20
2023-01-20T05:00:09.731Z,181.20
2023-01-20T05:02:37.788Z,190.30
2023-01-20T05:05:06.115Z,186.90
2023-01-20T05:07:34.120Z,199.70
2023-01-20T05:10:02.039Z,193.00
2023-01-20T05:12:29.969Z,202.80
2023-01-20T05:14:57.947Z,183.80
2023-01-20T05:17:26.039Z,178.10
2023-01-20T05:19:53.985Z,192.70
2023-01-20T05:22:21.979Z,182.90
2023-01-20T05:24:50.052Z,178.50
2023-01-20T05:27:18.078Z,180.90
2023-01-20T05:29:46.051Z,184.90
2023-01-20T05:32:14.015Z,192.20
2023-01-20T05:34:42.080Z,177.00
2023-01-20T05:37:10.022Z,170.10
2023-01-20T05:39:38.109Z,163.20
2023-01-20T05:42:06.147Z,167.40
2023-01-20T05:44:35.153Z,180.40
2023-01-20T05:47:03.327Z,186.30
2023-01-20T05:49:31.254Z,185.10
2023-01-20T05:51:59.404Z,174.30
2023-01-20T05:54:27.521Z,182.00
2023-01-20T05:56:55.461Z,145.10
2023-01-20T05:59:24.029Z,135.00
2023-01-20T06:01:52.095Z,157.00
2023-01-20T06:04:20.242Z,176.60
2023-01-20T06:06:48.320Z,187.80
2023-01-20T06:09:16.355Z,189.80
2023-01-20T06:11:44.332Z,194.50
2023-01-20T06:14:12.437Z,168.90
2023-01-20T06:16:40.400Z,170.70
2023-01-20T06:19:08.404Z,169.00
2023-01-20T06:21:36.825Z,171.30
2023-01-20T06:24:05.550Z,169.80
2023-01-20T06:26:33.475Z,169.80
2023-01-20T06:29:01.747Z,176.90
2023-01-20T06:31:29.779Z,183.10
2023-01-20T06:33:57.755Z,217.20
2023-01-20T06:36:25.751Z,222.20
2023-01-20T06:38:53.815Z,218.50
2023-01-20T06:41:21.792Z,208.20
2023-01-20T06:43:51.372Z,199.60
2023-01-20T06:46:19.497Z,202.70
2023-01-20T06:48:47.530Z,195.70
2023-01-20T06:51:19.461Z,170.00
2023-01-20T06:53:47.970Z,169.60
2023-01-20T06:56:16.484Z,153.70
2023-01-20T06:58:45.014Z,136.30
2023-01-20T07:01:16.835Z,100.40
2023-01-20T07:03:45.022Z,110.60
2023-01-20T07:06:48.696Z,104.20
2023-01-20T07:09:16.857Z,135.30
2023-01-20T07:11:46.165Z,132.20
2023-01-20T07:14:14.314Z,170.80
2023-01-20T07:16:42.575Z,208.20
2023-01-20T07:19:11.382Z,129.70
2023-01-20T07:21:42.204Z,125.80
2023-01-20T07:24:10.426Z,103.80
2023-01-20T07:26:39.746Z,164.60
2023-01-20T07:29:07.840Z,168.70
2023-01-20T07:31:35.963Z,149.80
2023-01-20T07:34:04.097Z,133.10
2023-01-20T07:36:32.216Z,128.70
2023-01-20T07:39:00.399Z,131.90
2023-01-20T07:41:28.548Z,107.20
2023-01-20T07:43:56.811Z,102.80
2023-01-20T07:46:25.113Z,98.80
2023-01-20T07:48:56.748Z,90.30
2023-01-20T07:51:24.801Z,96.10
2023-01-20T07:53:52.977Z,85.30
2023-01-20T07:56:31.116Z,85.90
2023-01-20T07:58:59.501Z,88.80
2023-01-20T08:01:30.767Z,82.90
2023-01-20T08:04:03.532Z,81.40
2023-01-20T08:06:31.903Z,85.20
2023-01-20T08:09:02.230Z,71.10
2023-01-20T08:11:32.481Z,84.40
2023-01-20T08:14:00.486Z,84.70
2023-01-20T08:16:28.734Z,82.20
2023-01-20T08:18:56.980Z,81.50
2023-01-20T08:21:31.509Z,80.80
2023-01-20T08:24:02.442Z,84.10
2023-01-20T08:26:31.279Z,79.70
2023-01-20T08:29:09.688Z,82.20
2023-01-20T08:31:38.520Z,91.90
2023-01-20T08:34:06.665Z,105.80
2023-01-20T08:36:37.497Z,106.10
2023-01-20T08:39:08.886Z,109.80
2023-01-20T08:41:41.545Z,92.80
2023-01-20T08:44:11.046Z,87.90
2023-01-20T08:46:41.876Z,90.40
2023-01-20T08:49:17.020Z,79.80
2023-01-20T08:51:45.599Z,81.10
2023-01-20T08:54:15.524Z,72.40
2023-01-20T08:56:46.069Z,76.60
2023-01-20T08:59:15.642Z,69.50
2023-01-20T09:01:44.285Z,72.10
2023-01-20T09:04:12.915Z,71.20
2023-01-20T09:06:46.536Z,70.50
2023-01-20T09:09:17.081Z,69.00
2023-01-20T09:11:50.824Z,68.00
2023-01-20T09:14:21.072Z,67.40
2023-01-20T09:16:49.183Z,63.90
2023-01-20T09:19:17.620Z,61.90
2023-01-20T09:21:45.625Z,64.20
2023-01-20T09:24:13.928Z,63.10
2023-01-20T09:26:42.035Z,60.60
2023-01-20T09:29:15.835Z,59.20
2023-01-20T09:31:49.741Z,64.00
2023-01-20T09:34:24.484Z,66.00
2023-01-20T09:36:55.161Z,66.30
2023-01-20T09:39:42.898Z,66.30
2023-01-20T09:43:01.205Z,60.80
2023-01-20T09:45:42.863Z,63.20
2023-01-20T09:48:50.035Z,63.70
2023-01-20T09:51:53.875Z,65.70
2023-01-20T09:54:29.685Z,67.30
2023-01-20T09:56:59.537Z,73.50
2023-01-20T09:59:37.539Z,68.70
2023-01-20T10:02:15.268Z,70.20
2023-01-20T10:04:50.145Z,70.40
2023-01-20T10:07:26.096Z,72.60
2023-01-20T10:10:12.045Z,76.70
2023-01-20T10:13:19.721Z,73.20
2023-01-20T10:15:54.540Z,64.20
2023-01-20T10:18:53.228Z,61.80
2023-01-20T10:21:29.036Z,61.50
2023-01-20T10:24:11.156Z,48.90
2023-01-20T10:27:04.167Z,59.90
2023-01-20T10:29:43.484Z,64.40
2023-01-20T10:32:18.887Z,63.20
2023-01-20T10:34:48.668Z,66.50
2023-01-20T10:37:17.123Z,60.60
2023-01-20T10:40:11.110Z,53.20
2023-01-20T10:42:39.035Z,61.10
2023-01-20T10:45:46.379Z,62.10
2023-01-20T10:48:17.348Z,60.40
2023-01-20T10:50:55.664Z,67.10
2023-01-20T10:53:45.516Z,63.10
2023-01-20T10:56:41.393Z,60.10
2023-01-20T10:59:17.132Z,64.80
2023-01-20T11:01:56.270Z,64.20
2023-01-20T11:04:28.158Z,66.40
2023-01-20T11:07:00.435Z,74.40
2023-01-20T11:09:37.759Z,77.60
2023-01-20T11:12:15.798Z,81.30
2023-01-20T11:14:46.620Z,85.70
2023-01-20T11:17:22.985Z,88.90
2023-01-20T11:19:57.585Z,93.70
2023-01-20T11:22:35.056Z,88.30
2023-01-20T11:25:05.067Z,87.10
2023-01-20T11:27:46.185Z,87.60
2023-01-20T11:30:31.243Z,91.20
2023-01-20T11:33:20.877Z,87.20
2023-01-20T11:36:15.004Z,92.40
2023-01-20T11:38:49.533Z,87.80
2023-01-20T11:41:28.858Z,91.50
2023-01-20T11:43:59.946Z,127.40
2023-01-20T11:46:33.029Z,139.70
2023-01-20T11:49:15.786Z,151.40
2023-01-20T11:51:57.275Z,101.50
2023-01-20T11:54:30.142Z,91.70
2023-01-20T11:59:37.493Z,85.80
2023-01-20T12:02:08.486Z,93.90
2023-01-20T12:04:52.989Z,90.50
2023-01-20T12:07:34.326Z,97.10
2023-01-20T12:10:26.095Z,86.90
2023-01-20T12:13:01.396Z,96.90
2023-01-20T12:15:35.545Z,94.90
2023-01-20T12:18:17.844Z,100.30
2023-01-20T12:21:02.123Z,101.70
2023-01-20T12:24:20.218Z,110.30
2023-01-20T12:26:49.102Z,108.50
2023-01-20T12:29:46.098Z,105.10
2023-01-20T12:32:14.219Z,114.80
2023-01-20T12:34:42.236Z,128.90
2023-01-20T12:38:12.155Z,122.60
2023-01-20T12:40:48.688Z,126.60
2023-01-20T12:43:54.476Z,307.80
2023-01-20T12:46:36.746Z,251.50
2023-01-20T12:50:01.378Z,254.10
2023-01-20T12:52:45.542Z,163.00
2023-01-20T12:55:16.371Z,129.00
2023-01-20T12:58:10.233Z,122.10
2023-01-20T13:01:23.619Z,108.90
2023-01-20T13:04:22.891Z,118.00
2023-01-20T13:07:21.324Z,114.60
2023-01-20T13:10:18.515Z,130.70
2023-01-20T13:13:05.430Z,133.40
2023-01-20T13:15:39.607Z,121.40
2023-01-20T13:18:13.557Z,104.60
2023-01-20T13:20:45.755Z,112.40
2023-01-20T13:23:25.259Z,108.50
2023-01-20T13:25:53.953Z,104.00
2023-01-20T13:28:25.220Z,112.20
2023-01-20T13:30:58.917Z,97.90
2023-01-20T13:33:40.007Z,103.30
2023-01-20T13:36:22.038Z,111.20
2023-01-20T13:39:29.564Z,98.80
2023-01-20T13:41:57.511Z,97.30
2023-01-20T13:44:42.314Z,94.20
2023-01-20T13:47:11.477Z,93.00
2023-01-20T13:49:53.665Z,100.70
2023-01-20T13:52:52.976Z,110.20
2023-01-20T13:55:41.154Z,113.80
2023-01-20T13:58:27.875Z,116.00
2023-01-20T14:01:10.236Z,134.10
2023-01-20T14:03:40.073Z,131.50
2023-01-20T14:06:13.874Z,102.80
2023-01-20T14:08:50.721Z,86.00
2023-01-20T14:11:24.675Z,95.90
2023-01-20T14:14:08.173Z,91.50
2023-01-20T14:16:36.174Z,92.30
2023-01-20T14:19:30.006Z,98.10
2023-01-20T14:22:02.034Z,92.30
2023-01-20T14:24:31.223Z,97.10
2023-01-20T14:27:27.367Z,89.90
2023-01-20T14:30:03.198Z,83.00
2023-01-20T14:32:39.058Z,87.50
2023-01-20T14:35:28.133Z,90.80
2023-01-20T14:37:56.201Z,82.20
2023-01-20T14:40:29.009Z,87.60
2023-01-20T14:45:32.595Z,98.30
2023-01-20T14:48:48.216Z,103.90
2023-01-20T14:51:15.021Z,85.40
2023-01-20T14:53:41.718Z,87.60
2023-01-20T14:56:20.852Z,87.40
2023-01-20T14:58:49.015Z,82.00
2023-01-20T15:01:22.789Z,75.10
2023-01-20T15:03:58.661Z,98.20
2023-01-20T15:06:26.008Z,110.60
2023-01-20T15:09:06.125Z,101.30
2023-01-20T15:11:33.959Z,85.60
2023-01-20T15:14:00.557Z,77.90
2023-01-20T15:16:29.961Z,75.20
2023-01-20T15:19:31.221Z,76.50
2023-01-20T15:22:21.389Z,70.80
2023-01-20T15:24:49.524Z,78.70
2023-01-20T15:27:26.457Z,80.10
2023-01-20T15:30:15.346Z,75.50
2023-01-20T15:32:42.405Z,73.40
2023-01-20T15:35:13.692Z,74.30
2023-01-20T15:37:42.614Z,73.30
2023-01-20T15:40:29.725Z,73.20
2023-01-20T15:42:56.853Z,81.50
2023-01-20T15:45:28.711Z,84.30
2023-01-20T15:47:55.849Z,89.20
2023-01-20T15:50:23.726Z,92.60
2023-01-20T15:52:50.262Z,91.20
2023-01-20T15:55:18.677Z,83.60
2023-01-20T15:57:49.755Z,99.30
2023-01-20T16:00:22.817Z,91.80
2023-01-20T16:02:50.259Z,90.90
2023-01-20T16:05:17.811Z,84.00
2023-01-20T16:07:46.898Z,92.20
2023-01-20T16:10:19.041Z,130.50
2023-01-20T16:12:46.614Z,124.40
2023-01-20T16:15:16.106Z,146.10
2023-01-20T16:17:43.115Z,159.50
2023-01-20T16:20:22.801Z,121.80
2023-01-20T16:22:49.614Z,123.80
2023-01-20T16:25:16.695Z,113.50
2023-01-20T16:27:43.793Z,114.10
2023-01-20T16:30:20.501Z,118.20
2023-01-20T16:32:47.312Z,110.00
2023-01-20T16:35:16.729Z,105.40
2023-01-20T16:37:46.898Z,110.50
2023-01-20T16:40:17.494Z,105.80
2023-01-20T16:42:45.050Z,108.60
2023-01-20T16:45:25.290Z,115.60
2023-01-20T16:47:52.174Z,128.20
2023-01-20T16:50:19.541Z,138.10
2023-01-20T16:52:47.067Z,128.00
2023-01-20T16:55:14.204Z,121.60
2023-01-20T16:57:41.847Z,128.40
2023-01-20T17:00:10.007Z,114.80
2023-01-20T17:02:38.547Z,127.80
2023-01-20T17:05:08.596Z,136.70
2023-01-20T17:07:35.372Z,129.00
2023-01-20T17:10:02.908Z,122.70
2023-01-20T17:12:29.644Z,129.30
2023-01-20T17:14:56.674Z,148.50
2023-01-20T17:17:23.530Z,128.80
2023-01-20T17:19:50.336Z,140.80
2023-01-20T17:22:17.632Z,134.10
2023-01-20T17:24:44.271Z,136.20
2023-01-20T17:27:11.239Z,125.10
2023-01-20T17:29:38.039Z,132.90
2023-01-20T17:32:04.801Z,128.70
2023-01-20T17:34:31.473Z,129.40
2023-01-20T17:36:58.503Z,126.60
2023-01-20T17:39:25.462Z,131.80
2023-01-20T17:41:52.199Z,128.20
2023-01-20T17:44:19.237Z,127.00
2023-01-20T17:46:49.396Z,125.30
2023-01-20T17:49:16.340Z,127.90
2023-01-20T17:51:43.649Z,110.10
2023-01-20T17:54:10.678Z,120.90
2023-01-20T17:56:37.836Z,117.60
2023-01-20T17:59:05.129Z,114.80
2023-01-20T18:01:32.953Z,108.20
2023-01-20T18:04:03.762Z,99.20
2023-01-20T18:06:34.741Z,102.70
2023-01-20T18:09:02.651Z,102.60
2023-01-20T18:11:32.613Z,102.80
2023-01-20T18:14:01.092Z,114.60
2023-01-20T18:16:35.148Z,150.10
2023-01-20T18:19:02.603Z,139.00
2023-01-20T18:21:37.247Z,127.90
2023-01-20T18:24:06.924Z,125.80
2023-01-20T18:26:37.227Z,118.40
2023-01-20T18:29:07.684Z,126.70
2023-01-20T18:31:35.085Z,120.90
2023-01-20T18:34:05.846Z,122.20
2023-01-20T18:36:35.177Z,115.50
2023-01-20T18:39:32.528Z,103.90
2023-01-20T18:41:59.291Z,116.40
2023-01-20T18:44:26.357Z,122.50
2023-01-20T18:46:56.018Z,103.10
2023-01-20T18:49:23.065Z,106.90
2023-01-20T18:51:50.227Z,110.00
2023-01-20T18:54:24.305Z,131.80
2023-01-20T18:56:51.806Z,110.80
2023-01-20T18:59:19.335Z,108.00
2023-01-20T19:01:47.913Z,96.00
2023-01-20T19:04:15.592Z,85.60
2023-01-20T19:06:45.208Z,119.40
2023-01-20T19:09:15.292Z,101.00
2023-01-20T19:12:01.813Z,120.10
2023-01-20T19:14:30.738Z,114.40
2023-01-20T19:17:00.116Z,103.40
2023-01-20T19:19:29.209Z,95.70
2023-01-20T19:21:58.327Z,86.40
2023-01-20T19:24:29.227Z,90.20
2023-01-20T19:27:00.481Z,81.00
2023-01-20T19:29:30.452Z,88.10
2023-01-20T19:31:59.418Z,90.10
2023-01-20T19:35:11.992Z,89.60
2023-01-20T19:37:41.114Z,104.00
2023-01-20T19:40:11.794Z,98.70
2023-01-20T19:42:40.882Z,91.80
2023-01-20T19:45:10.892Z,113.30
2023-01-20T19:47:43.276Z,89.10
2023-01-20T19:52:43.533Z,83.20
2023-01-20T19:55:13.197Z,87.40
2023-01-20T19:57:42.726Z,82.70
2023-01-20T20:00:14.083Z,78.50
2023-01-20T20:02:43.322Z,84.80
2023-01-20T20:05:13.149Z,79.70
2023-01-20T20:07:42.477Z,91.30
2023-01-20T20:10:12.125Z,85.00
2023-01-20T20:12:41.377Z,89.50
2023-01-20T20:15:11.595Z,92.40
2023-01-20T20:17:44.509Z,104.30
2023-01-20T20:20:13.810Z,102.90
2023-01-20T20:22:42.827Z,89.30
2023-01-20T20:25:11.974Z,81.70
2023-01-20T20:27:41.298Z,87.20
2023-01-20T20:30:11.815Z,85.60
2023-01-20T20:32:43.551Z,91.40
2023-01-20T20:35:15.205Z,80.20
2023-01-20T20:37:47.620Z,85.80
2023-01-20T20:40:17.553Z,76.40
2023-01-20T20:42:48.803Z,71.00
2023-01-20T20:45:20.388Z,75.80
2023-01-20T20:47:49.676Z,79.50
2023-01-20T20:50:19.284Z,78.00
2023-01-20T20:52:50.774Z,93.70
2023-01-20T20:55:20.190Z,88.80
2023-01-20T20:57:50.162Z,88.30
2023-01-20T21:00:23.620Z,90.00
2023-01-20T21:02:52.917Z,93.40
2023-01-20T21:05:22.210Z,82.60
2023-01-20T21:07:51.473Z,72.60
2023-01-20T21:10:21.432Z,72.70
2023-01-20T21:19:17.162Z,64.90
2023-01-20T21:21:46.675Z,55.50
2023-01-20T21:24:15.772Z,57.00
2023-01-20T21:26:45.082Z,62.90
2023-01-20T21:29:14.565Z,53.80
2023-01-20T21:31:47.601Z,57.80
2023-01-20T21:34:21.555Z,59.60
2023-01-20T21:36:50.738Z,54.40
2023-01-20T21:39:20.829Z,51.30
2023-01-20T21:41:50.304Z,56.50
2023-01-20T21:44:28.542Z,55.70
2023-01-20T21:47:10.684Z,54.00
2023-01-20T21:50:01.437Z,60.60
2023-01-20T21:52:42.615Z,54.00
2023-01-20T21:55:19.510Z,53.10
2023-01-20T21:57:51.341Z,55.20
2023-01-20T22:00:21.201Z,61.40
2023-01-20T22:02:49.949Z,52.70
2023-01-20T22:05:18.970Z,55.90
2023-01-20T22:07:48.540Z,54.50
2023-01-20T22:10:17.277Z,58.20
2023-01-20T22:12:45.904Z,51.60
2023-01-20T22:15:14.351Z,51.30
2023-01-20T22:17:43.053Z,55.30
2023-01-20T22:20:11.878Z,54.20
2023-01-20T22:22:40.205Z,53.70
2023-01-20T22:25:09.524Z,43.10
2023-01-20T22:27:37.681Z,46.80
2023-01-20T22:30:06.685Z,54.00
2023-01-20T22:32:34.776Z,55.10
2023-01-20T22:35:02.947Z,50.20
2023-01-20T22:37:31.625Z,47.70
2023-01-20T22:39:59.977Z,53.60
2023-01-20T22:42:28.011Z,54.40
2023-01-20T22:44:56.112Z,59.20
2023-01-20T22:47:24.093Z,56.50
2023-01-20T22:49:56.860Z,55.90
2023-01-20T22:52:25.092Z,53.60
2023-01-20T22:54:53.420Z,57.10
2023-01-20T22:57:21.423Z,50.00
2023-01-20T22:59:49.385Z,56.60
2023-01-20T23:02:17.379Z,73.40
2023-01-20T23:04:45.310Z,82.70
2023-01-20T23:07:14.404Z,69.90
2023-01-20T23:09:42.572Z,59.10
2023-01-20T23:12:10.514Z,62.30
2023-01-20T23:14:57.155Z,68.00
2023-01-20T23:17:29.879Z,68.10
2023-01-20T23:19:58.268Z,54.90
2023-01-20T23:22:26.308Z,56.70
2023-01-20T23:24:54.253Z,66.00
2023-01-20T23:27:22.161Z,59.10
2023-01-20T23:29:50.347Z,56.20
2023-01-20T23:32:20.997Z,53.90
2023-01-20T23:34:48.998Z,53.50
2023-01-20T23:37:17.421Z,54.40
2023-01-20T23:39:45.357Z,51.80
2023-01-20T23:42:13.320Z,59.20
2023-01-20T23:44:41.348Z,48.00
2023-01-20T23:47:10.580Z,53.50
2023-01-20T23:49:38.596Z,57.60
2023-01-20T23:52:06.584Z,49.20
2023-01-20T23:54:34.616Z,50.70
2023-01-20T23:57:02.787Z,48.60
2023-01-20T23:59:30.860Z,51.80
